Time;durP1;ratioP1;P1;durP2;ratioP2;P2;SDS_P1;SDS_P2;PMS_P1;PMS_P2;Temp;Humidity;BMP_temperature;BMP_pressure;BME280_temperature;BME280_humidity;BME280_pressure;Samples;Min_cycle;Max_cycle;Signal;HPM_P1;HPM_P2
2023/06/22 00:01:06;;;;;;;6.38;3.90;;;;;;;17.55;100.00;98831.97;4186690;28;20094;-74
2023/06/22 00:03:06;;;;;;;5.15;3.85;;;;;;;17.52;100.00;98816.81;4173936;28;20044;-74
2023/06/22 00:05:06;;;;;;;5.70;3.70;;;;;;;17.54;100.00;98811.63;4174929;28;20136;-74
2023/06/22 00:07:08;;;;;;;5.63;4.07;;;;;;;17.52;100.00;98813.22;4182417;28;20101;-74
2023/06/22 00:09:10;;;;;;;6.25;4.47;;;;;;;17.50;100.00;98805.25;4189581;28;20452;-73
2023/06/22 00:11:10;;;;;;;8.73;3.97;;;;;;;17.47;100.00;98808.09;4189414;28;20044;-74
2023/06/22 00:13:12;;;;;;;4.15;3.45;;;;;;;17.50;100.00;98802.44;4188029;28;20267;-74
2023/06/22 00:15:12;;;;;;;6.28;3.63;;;;;;;17.54;100.00;98808.00;4189668;28;20052;-74
2023/06/22 00:17:12;;;;;;;5.95;3.80;;;;;;;17.51;100.00;98814.44;4177698;28;20465;-74
2023/06/22 00:19:13;;;;;;;6.75;3.90;;;;;;;17.45;100.00;98816.09;4174608;28;20120;-74
2023/06/22 00:21:13;;;;;;;4.45;3.78;;;;;;;17.35;100.00;98818.59;4174699;28;20469;-74
2023/06/22 00:23:15;;;;;;;6.40;3.50;;;;;;;17.28;100.00;98829.03;4173923;28;20384;-74
2023/06/22 00:25:16;;;;;;;10.57;4.28;;;;;;;17.24;100.00;98829.09;4174454;28;20037;-74
2023/06/22 00:27:16;;;;;;;5.68;4.07;;;;;;;17.17;100.00;98814.38;4173937;28;20048;-74
2023/06/22 00:29:16;;;;;;;4.60;3.55;;;;;;;17.22;100.00;98814.75;4180723;28;20797;-74
2023/06/22 00:31:17;;;;;;;4.65;3.88;;;;;;;17.22;100.00;98799.97;4189387;28;20037;-73
2023/06/22 00:33:17;;;;;;;4.20;3.50;;;;;;;17.30;100.00;98804.28;4188120;28;20369;-73
2023/06/22 00:35:17;;;;;;;4.47;3.80;;;;;;;17.29;100.00;98794.28;4189563;28;20044;-74
2023/06/22 00:37:18;;;;;;;6.90;3.97;;;;;;;17.25;100.00;98796.34;4178986;28;20049;-74
2023/06/22 00:39:18;;;;;;;4.22;3.58;;;;;;;17.14;100.00;98788.06;4178251;28;20059;-74
2023/06/22 00:41:19;;;;;;;4.60;4.05;;;;;;;16.99;100.00;98797.78;4178910;28;20048;-74
2023/06/22 00:43:19;;;;;;;5.25;4.75;;;;;;;16.92;100.00;98800.63;4175874;28;20049;-74
2023/06/22 00:45:20;;;;;;;6.65;3.83;;;;;;;16.78;100.00;98805.13;4176851;28;20102;-74
2023/06/22 00:47:21;;;;;;;5.72;4.07;;;;;;;16.72;100.00;98801.22;4180261;28;20044;-74
2023/06/22 00:49:21;;;;;;;6.75;4.00;;;;;;;16.73;100.00;98813.19;4177806;28;20053;-74
2023/06/22 00:51:24;;;;;;;6.40;4.68;;;;;;;16.71;100.00;98807.19;4181218;28;20037;-74
2023/06/22 00:53:25;;;;;;;6.88;4.18;;;;;;;16.68;100.00;98805.19;4173271;28;20132;-74
2023/06/22 00:55:25;;;;;;;5.70;4.18;;;;;;;16.66;100.00;98811.19;4173956;28;20060;-74
2023/06/22 00:57:27;;;;;;;5.38;4.55;;;;;;;16.66;100.00;98797.22;4178663;28;20544;-74
2023/06/22 00:59:28;;;;;;;5.55;4.25;;;;;;;16.66;100.00;98802.03;4188778;28;20039;-74
2023/06/22 01:01:28;;;;;;;5.80;4.35;;;;;;;16.65;100.00;98797.66;4187534;28;20132;-74
2023/06/22 01:03:29;;;;;;;4.75;4.15;;;;;;;16.64;100.00;98793.28;4188672;28;20043;-74
2023/06/22 01:05:31;;;;;;;4.85;4.07;;;;;;;16.63;100.00;98794.44;4185409;28;20751;-74
2023/06/22 01:07:37;;;;;;;7.78;4.38;;;;;;;16.58;100.00;98799.28;4173922;28;20487;-74
2023/06/22 01:09:49;;;;;;;4.38;3.72;;;;;;;16.53;100.00;98793.31;4173578;28;20072;-74
2023/06/22 01:11:57;;;;;;;6.05;4.10;;;;;;;16.51;100.00;98799.34;4173827;28;20048;-74
2023/06/22 01:13:59;;;;;;;5.72;4.03;;;;;;;16.51;100.00;98799.34;4186886;28;20170;-74
2023/06/22 01:16:07;;;;;;;4.85;3.70;;;;;;;16.50;100.00;98802.53;4187888;28;20072;-74
2023/06/22 01:18:09;;;;;;;9.23;4.35;;;;;;;16.44;100.00;98796.59;4177399;28;20052;-74
2023/06/22 01:20:12;;;;;;;7.07;4.45;;;;;;;16.41;100.00;98788.25;4173570;28;20260;-74
2023/06/22 01:22:16;;;;;;;6.32;4.28;;;;;;;16.40;100.00;98787.44;4179302;28;20035;-74
2023/06/22 01:24:26;;;;;;;6.70;4.63;;;;;;;16.39;100.00;98787.88;4183082;28;20051;-74
2023/06/22 01:26:38;;;;;;;6.45;5.40;;;;;;;16.28;100.00;98785.91;4173088;28;20439;-74
2023/06/22 01:28:46;;;;;;;8.57;5.45;;;;;;;16.17;100.00;98796.38;4175915;28;20052;-74
2023/06/22 01:30:48;;;;;;;9.63;4.95;;;;;;;16.11;100.00;98783.25;4177969;28;20404;-74
2023/06/22 01:32:50;;;;;;;6.15;4.38;;;;;;;16.07;100.00;98782.47;4172814;28;20087;-74
2023/06/22 01:34:51;;;;;;;6.60;4.80;;;;;;;16.12;100.00;98770.88;4179508;28;20247;-74
2023/06/22 01:36:52;;;;;;;6.88;5.10;;;;;;;16.11;100.00;98763.69;4173431;28;20067;-74
2023/06/22 01:38:53;;;;;;;9.13;5.17;;;;;;;16.08;100.00;98753.38;4187155;28;20037;-74
2023/06/22 01:40:56;;;;;;;8.85;5.18;;;;;;;16.11;100.00;98746.94;4184485;28;20391;-74
2023/06/22 01:42:57;;;;;;;6.22;4.72;;;;;;;16.14;100.00;98754.53;4186857;28;20051;-74
2023/06/22 01:44:59;;;;;;;6.43;5.13;;;;;;;16.14;100.00;98760.91;4186911;28;20045;-74
2023/06/22 01:46:59;;;;;;;7.85;4.90;;;;;;;16.09;100.00;98754.94;4178246;28;20032;-74
2023/06/22 01:49:01;;;;;;;10.45;5.15;;;;;;;16.08;100.00;98756.16;4188922;28;20089;-74
2023/06/22 01:51:03;;;;;;;6.68;4.55;;;;;;;16.09;100.00;98752.16;4187466;28;20389;-74
2023/06/22 01:53:03;;;;;;;5.88;4.22;;;;;;;16.13;100.00;98736.97;4175093;28;20082;-74
2023/06/22 01:55:04;;;;;;;5.32;4.30;;;;;;;16.15;100.00;98719.81;4188662;28;20076;-74
2023/06/22 01:57:05;;;;;;;6.97;4.28;;;;;;;16.22;100.00;98715.00;4186803;28;20028;-74
2023/06/22 01:59:28;;;;;;;8.15;4.28;;;;;;;16.24;100.00;98711.78;4177726;28;20123;-74
2023/06/22 02:01:35;;;;;;;6.22;4.65;;;;;;;16.18;100.00;98730.16;4173113;28;20048;-73
2023/06/22 02:03:47;;;;;;;6.72;5.00;;;;;;;16.13;100.00;98739.75;4172400;28;20033;-74
2023/06/22 02:05:52;;;;;;;7.78;4.32;;;;;;;16.13;100.00;98719.41;4172622;28;20451;-73
2023/06/22 02:08:09;;;;;;;8.73;4.88;;;;;;;16.13;100.00;98711.06;4174431;28;20044;-74
2023/06/22 02:10:13;;;;;;;6.60;4.57;;;;;;;16.13;100.00;98685.94;4178758;28;20230;-74
2023/06/22 02:12:18;;;;;;;6.53;5.18;;;;;;;16.06;100.00;98709.13;4184165;28;20522;-74
2023/06/22 02:14:18;;;;;;;9.68;5.13;;;;;;;15.98;100.00;98735.50;4174391;28;20041;-74
2023/06/22 02:16:19;;;;;;;8.20;5.10;;;;;;;15.94;100.00;98745.88;4173254;28;20032;-74
2023/06/22 02:18:20;;;;;;;7.10;5.05;;;;;;;15.89;100.00;98754.69;4173007;28;20499;-74
2023/06/22 02:20:20;;;;;;;5.97;5.07;;;;;;;15.89;100.00;98765.84;4187164;28;20119;-74
2023/06/22 02:22:21;;;;;;;9.13;5.63;;;;;;;15.89;100.00;98769.41;4179285;28;20076;-74
2023/06/22 02:24:23;;;;;;;7.25;4.97;;;;;;;15.87;100.00;98763.44;4175619;28;20040;-74
2023/06/22 02:26:25;;;;;;;5.50;4.90;;;;;;;15.89;100.00;98775.00;4176204;28;20037;-74
2023/06/22 02:28:25;;;;;;;7.45;5.90;;;;;;;15.92;100.00;98767.81;4175967;28;20275;-74
2023/06/22 02:30:25;;;;;;;7.43;5.25;;;;;;;15.95;100.00;98764.97;4176501;28;20033;-74
2023/06/22 02:32:26;;;;;;;8.35;5.78;;;;;;;15.99;100.00;98762.97;4181705;28;20533;-74
2023/06/22 02:34:26;;;;;;;9.80;5.50;;;;;;;15.98;100.00;98763.41;4190831;28;20424;-74
2023/06/22 02:36:27;;;;;;;6.82;5.65;;;;;;;16.00;100.00;98778.53;4191262;28;20048;-74
2023/06/22 02:38:27;;;;;;;13.32;6.97;;;;;;;15.98;100.00;98782.94;4183065;28;20074;-74
2023/06/22 02:40:32;;;;;;;7.90;5.88;;;;;;;15.99;100.00;98790.88;4179063;28;20037;-74
2023/06/22 02:42:32;;;;;;;8.13;5.75;;;;;;;15.99;100.00;98790.88;4180221;28;20045;-74
2023/06/22 02:44:32;;;;;;;10.77;6.50;;;;;;;15.97;100.00;98814.78;4176891;28;20135;-74
2023/06/22 02:46:33;;;;;;;9.57;5.90;;;;;;;15.92;100.00;98824.41;4178443;28;20136;-73
2023/06/22 02:48:33;;;;;;;12.02;6.38;;;;;;;15.89;100.00;98814.06;4175865;28;20249;-74
2023/06/22 02:50:34;;;;;;;13.05;6.35;;;;;;;15.87;100.00;98821.22;4184201;28;20063;-74
2023/06/22 02:52:34;;;;;;;12.77;7.15;;;;;;;15.81;100.00;98818.09;4174779;28;20472;-74
2023/06/22 02:54:34;;;;;;;12.30;6.57;;;;;;;15.82;100.00;98818.88;4178896;28;20245;-74
2023/06/22 02:56:36;;;;;;;10.75;5.63;;;;;;;15.84;100.00;98828.44;4190076;28;20116;-74
2023/06/22 02:58:38;;;;;;;7.95;5.97;;;;;;;15.83;100.00;98835.22;4190901;28;20040;-73
2023/06/22 03:00:39;;;;;;;11.73;7.32;;;;;;;15.81;100.00;98853.56;4190455;28;20024;-74
2023/06/22 03:02:39;;;;;;;10.50;6.88;;;;;;;15.82;100.00;98867.09;4181217;28;20044;-74
2023/06/22 03:04:39;;;;;;;11.27;6.80;;;;;;;15.84;100.00;98881.44;4187506;28;20323;-74
2023/06/22 03:06:40;;;;;;;11.75;6.93;;;;;;;15.85;100.00;98891.41;4189916;28;20093;-74
2023/06/22 03:08:41;;;;;;;16.17;6.70;;;;;;;15.88;100.00;98898.16;4184236;28;20053;-74
2023/06/22 03:10:41;;;;;;;14.85;6.80;;;;;;;15.95;100.00;98909.28;4175135;28;20040;-74
2023/06/22 03:12:43;;;;;;;12.05;6.88;;;;;;;16.00;100.00;98908.88;4189718;28;20377;-74
2023/06/22 03:14:43;;;;;;;11.25;7.28;;;;;;;16.03;100.00;98902.50;4190303;28;20072;-74
2023/06/22 03:16:43;;;;;;;12.55;6.97;;;;;;;16.09;100.00;98905.66;4182352;28;20116;-74
2023/06/22 03:18:44;;;;;;;13.82;7.30;;;;;;;16.13;100.00;98900.84;4183832;28;20472;-74
2023/06/22 03:20:44;;;;;;;16.30;7.30;;;;;;;16.17;100.00;98894.06;4187963;28;20086;-74
2023/06/22 03:22:45;;;;;;;12.02;6.13;;;;;;;16.22;100.00;98892.88;4180102;28;20101;-74
2023/06/22 03:24:45;;;;;;;9.70;6.90;;;;;;;16.25;100.00;98889.25;4176361;28;20040;-74
2023/06/22 03:26:46;;;;;;;10.18;6.93;;;;;;;16.31;100.00;98875.66;4180889;28;20041;-74
2023/06/22 03:28:47;;;;;;;14.00;6.88;;;;;;;16.34;100.00;98880.44;4175297;28;20318;-74
2023/06/22 03:30:47;;;;;;;12.77;7.03;;;;;;;16.35;100.00;98882.00;4175350;28;20051;-74
2023/06/22 03:32:47;;;;;;;12.50;7.10;;;;;;;16.35;100.00;98884.81;4172479;28;20928;-74
2023/06/22 03:34:48;;;;;;;13.38;7.75;;;;;;;16.34;100.00;98881.22;4174797;28;20460;-74
2023/06/22 03:36:48;;;;;;;10.25;6.72;;;;;;;16.36;100.00;98884.41;4174309;28;20029;-73
2023/06/22 03:38:50;;;;;;;11.27;6.50;;;;;;;16.41;100.00;98869.22;4178502;28;20504;-73
2023/06/22 03:40:50;;;;;;;15.33;6.73;;;;;;;16.44;100.00;98871.19;4177532;28;20168;-74
2023/06/22 03:42:50;;;;;;;16.17;7.00;;;;;;;16.44;100.00;98857.22;4177861;28;20267;-74
2023/06/22 03:44:51;;;;;;;17.13;7.68;;;;;;;16.45;100.00;98842.06;4175063;28;20419;-74
2023/06/22 03:46:51;;;;;;;12.13;6.57;;;;;;;16.47;100.00;98832.09;4175143;28;20548;-74
2023/06/22 03:48:51;;;;;;;11.32;7.78;;;;;;;16.48;100.00;98816.13;4174986;28;20068;-74
2023/06/22 03:50:51;;;;;;;11.70;7.05;;;;;;;16.52;100.00;98803.72;4182248;28;20091;-74
2023/06/22 03:52:52;;;;;;;14.05;6.68;;;;;;;16.54;100.00;98780.94;4190196;28;20047;-73
2023/06/22 03:54:52;;;;;;;15.32;8.73;;;;;;;16.53;100.00;98777.38;4187777;28;20120;-74
2023/06/22 03:56:53;;;;;;;14.70;6.32;;;;;;;16.55;100.00;98774.19;4175103;28;20036;-74
2023/06/22 03:58:53;;;;;;;11.20;6.82;;;;;;;16.59;100.00;98755.38;4175077;28;20049;-74
2023/06/22 04:00:53;;;;;;;16.88;7.65;;;;;;;16.61;100.00;98733.41;4181367;28;20032;-74
2023/06/22 04:02:53;;;;;;;23.75;8.55;;;;;;;16.60;100.00;98726.25;4177834;28;20037;-74
2023/06/22 04:04:54;;;;;;;16.20;7.65;;;;;;;16.56;100.00;98725.50;4174363;28;20457;-74
2023/06/22 04:06:54;;;;;;;11.80;8.43;;;;;;;16.54;100.00;98716.72;4183511;28;20037;-74
2023/06/22 04:08:54;;;;;;;14.18;9.13;;;;;;;16.53;100.00;98715.13;4176126;28;20063;-74
2023/06/22 04:10:55;;;;;;;13.65;8.80;;;;;;;16.54;100.00;98723.09;4174575;28;20048;-74
2023/06/22 04:12:56;;;;;;;12.95;8.38;;;;;;;16.54;100.00;98727.88;4174603;28;20033;-74
2023/06/22 04:14:56;;;;;;;19.95;8.63;;;;;;;16.51;100.00;98739.88;4174538;28;20037;-74
2023/06/22 04:16:57;;;;;;;10.55;7.40;;;;;;;16.53;100.00;98743.06;4174562;28;20478;-74
2023/06/22 04:18:58;;;;;;;13.50;8.32;;;;;;;16.55;100.00;98754.63;4177881;28;20499;-74
2023/06/22 04:20:58;;;;;;;10.43;7.68;;;;;;;16.56;100.00;98759.00;4179362;28;20185;-74
2023/06/22 04:22:58;;;;;;;14.13;7.25;;;;;;;16.64;100.00;98765.34;4172074;28;20735;-74
2023/06/22 04:24:59;;;;;;;10.43;6.97;;;;;;;16.66;100.00;98766.50;4174665;28;20699;-74
2023/06/22 04:27:02;;;;;;;10.68;7.20;;;;;;;16.74;100.00;98770.06;4174196;28;20041;-74
2023/06/22 04:29:06;;;;;;;10.45;7.38;;;;;;;16.82;100.00;98757.63;4182090;28;20043;-74
2023/06/22 04:31:06;;;;;;;13.27;7.72;;;;;;;16.87;100.00;98754.34;4178220;28;20177;-74
2023/06/22 04:33:06;;;;;;;11.52;6.95;;;;;;;16.91;100.00;98745.97;4181744;28;20041;-74
2023/06/22 04:35:07;;;;;;;9.25;7.20;;;;;;;16.96;100.00;98740.69;4182958;28;20059;-74
2023/06/22 04:37:07;;;;;;;11.52;6.90;;;;;;;16.97;100.00;98725.53;4188834;28;20128;-74
2023/06/22 04:39:09;;;;;;;9.90;7.55;;;;;;;17.00;100.00;98724.69;4183685;28;20033;-74
2023/06/22 04:41:14;;;;;;;16.73;8.63;;;;;;;17.04;100.00;98724.66;4173435;28;20142;-74
2023/06/22 04:43:14;;;;;;;11.73;8.40;;;;;;;17.08;100.00;98720.63;4180762;28;20052;-74
2023/06/22 04:45:14;;;;;;;10.90;8.32;;;;;;;17.06;100.00;98716.66;4174499;28;20247;-74
2023/06/22 04:47:14;;;;;;;13.82;9.35;;;;;;;17.06;100.00;98719.44;4176069;28;20033;-74
2023/06/22 04:49:15;;;;;;;15.35;8.35;;;;;;;17.10;100.00;98720.19;4169202;28;20053;-74
2023/06/22 04:51:15;;;;;;;10.10;7.30;;;;;;;17.14;100.00;98726.56;4178006;28;20057;-74
2023/06/22 04:53:15;;;;;;;9.50;7.57;;;;;;;17.23;100.00;98726.84;4174153;28;20052;-74
2023/06/22 04:55:19;;;;;;;11.98;7.65;;;;;;;17.27;100.00;98732.38;4178349;28;20071;-74
2023/06/22 04:57:19;;;;;;;11.20;8.27;;;;;;;17.39;100.00;98732.66;4174995;28;20079;-74
2023/06/22 04:59:20;;;;;;;12.93;8.77;;;;;;;17.47;100.00;98735.38;4177298;28;20045;-74
2023/06/22 05:01:22;;;;;;;12.88;7.75;;;;;;;17.55;100.00;98739.66;4181182;28;20564;-74
2023/06/22 05:03:22;;;;;;;15.03;9.37;;;;;;;17.68;100.00;98749.06;4178459;28;20049;-74
2023/06/22 05:05:22;;;;;;;14.18;8.23;;;;;;;17.86;100.00;98748.88;4175504;28;20275;-74
2023/06/22 05:07:25;;;;;;;12.65;9.80;;;;;;;17.82;100.00;98745.34;4141081;28;20417;-74
2023/06/22 05:09:26;;;;;;;18.73;10.43;;;;;;;17.93;100.00;98737.59;4175767;28;20036;-74
2023/06/22 05:11:27;;;;;;;13.48;8.98;;;;;;;18.08;100.00;98747.38;4176625;28;20384;-74
2023/06/22 05:13:27;;;;;;;11.80;8.60;;;;;;;18.21;100.00;98745.59;4177656;28;20035;-74
2023/06/22 05:15:30;;;;;;;11.07;8.55;;;;;;;18.33;100.00;98743.41;4172341;28;20029;-74
2023/06/22 05:17:30;;;;;;;;;;;;;;;18.45;100.00;98749.22;4175522;28;20118;-74
2023/06/22 05:19:33;;;;;;;12.98;9.38;;;;;;;18.53;100.00;98741.47;4176602;28;19929;-74
2023/06/22 05:21:33;;;;;;;13.93;9.57;;;;;;;18.58;100.00;98751.41;4175269;28;20370;-74
2023/06/22 05:23:34;;;;;;;11.63;8.55;;;;;;;18.66;100.00;98736.88;4175794;28;20029;-74
2023/06/22 05:25:34;;;;;;;10.48;8.63;;;;;;;18.67;100.00;98740.47;4167310;28;20055;-74
2023/06/22 05:27:39;;;;;;;15.10;8.55;;;;;;;18.79;100.00;98740.69;4172128;28;20129;-74
2023/06/22 05:29:39;;;;;;;11.43;8.00;;;;;;;18.90;100.00;98728.47;4174035;28;20363;-74
2023/06/22 05:31:40;;;;;;;13.60;9.02;;;;;;;18.90;100.00;98743.28;4178219;28;20524;-74
2023/06/22 05:33:41;;;;;;;10.60;8.23;;;;;;;18.84;100.00;98728.16;4174563;28;20082;-74
2023/06/22 05:35:41;;;;;;;12.43;8.85;;;;;;;18.78;100.00;98729.88;4178548;28;20431;-74
2023/06/22 05:37:42;;;;;;;11.95;8.65;;;;;;;18.69;100.00;98732.44;4177647;28;20045;-74
2023/06/22 05:39:43;;;;;;;9.20;7.75;;;;;;;18.70;100.00;98742.41;4174005;28;20048;-74
2023/06/22 05:41:45;;;;;;;9.95;7.90;;;;;;;18.71;100.00;98753.22;4176701;28;20346;-74
2023/06/22 05:43:45;;;;;;;11.10;8.45;;;;;;;18.67;100.00;98755.28;4175309;28;20036;-74
2023/06/22 05:45:46;;;;;;;10.50;8.20;;;;;;;18.67;100.00;98757.28;4175460;28;20061;-74
2023/06/22 05:47:46;;;;;;;13.98;8.43;;;;;;;18.65;100.00;98752.13;4177217;28;20075;-74
2023/06/22 05:49:46;;;;;;;8.73;7.72;;;;;;;18.68;100.00;98756.06;4174034;28;20128;-74
2023/06/22 05:51:47;;;;;;;11.90;8.70;;;;;;;18.70;100.00;98748.03;4177501;28;20631;-74
2023/06/22 05:53:49;;;;;;;13.10;8.93;;;;;;;18.68;100.00;98759.66;4173823;28;20439;-74
2023/06/22 05:55:49;;;;;;;9.82;6.80;;;;;;;18.77;100.00;98761.91;4178048;28;20052;-74
2023/06/22 05:57:50;;;;;;;10.82;7.82;;;;;;;18.83;100.00;98759.44;4177695;28;20037;-74
2023/06/22 05:59:51;;;;;;;10.68;8.82;;;;;;;18.85;100.00;98754.97;4172615;28;20377;-74
2023/06/22 06:01:51;;;;;;;12.73;8.73;;;;;;;18.88;100.00;98753.34;4177854;28;20281;-74
2023/06/22 06:03:52;;;;;;;10.43;8.82;;;;;;;18.95;100.00;98758.81;4175329;28;20044;-73
2023/06/22 06:05:53;;;;;;;14.07;7.68;;;;;;;18.99;100.00;98757.53;4175449;28;20566;-73
2023/06/22 06:07:53;;;;;;;9.68;6.82;;;;;;;19.08;100.00;98760.56;4176282;28;20120;-74
2023/06/22 06:09:53;;;;;;;10.70;7.90;;;;;;;19.20;100.00;98761.97;4176805;28;20369;-74
2023/06/22 06:11:54;;;;;;;10.27;7.38;;;;;;;19.29;100.00;98759.41;4175870;28;20416;-74
2023/06/22 06:13:54;;;;;;;9.57;7.78;;;;;;;19.36;100.00;98755.63;4176438;28;20033;-74
2023/06/22 06:15:57;;;;;;;9.05;7.45;;;;;;;19.41;100.00;98755.16;4176092;28;20041;-74
2023/06/22 06:17:58;;;;;;;8.35;7.05;;;;;;;19.48;100.00;98755.00;4177154;28;20046;-74
2023/06/22 06:19:59;;;;;;;10.15;7.93;;;;;;;19.57;100.00;98752.44;4175120;28;20052;-74
2023/06/22 06:22:00;;;;;;;11.43;8.68;;;;;;;19.64;100.00;98754.31;4175560;28;20100;-74
2023/06/22 06:24:00;;;;;;;11.45;8.35;;;;;;;19.79;100.00;98760.44;4178351;28;20366;-74
2023/06/22 06:26:01;;;;;;;10.07;7.95;;;;;;;19.89;100.00;98756.59;4178186;28;20033;-74
2023/06/22 06:28:01;;;;;;;12.57;7.82;;;;;;;20.02;100.00;98756.72;4175658;28;20044;-74
2023/06/22 06:30:03;;;;;;;11.27;7.85;;;;;;;20.14;100.00;98764.47;4174376;28;20029;-74
2023/06/22 06:32:03;;;;;;;12.80;7.67;;;;;;;20.18;100.00;98765.97;4176927;28;20025;-74
2023/06/22 06:34:04;;;;;;;7.93;7.13;;;;;;;20.20;100.00;98757.91;4173383;28;20573;-74
2023/06/22 06:36:04;;;;;;;9.68;7.75;;;;;;;20.30;100.00;98749.69;4176742;28;20045;-74
2023/06/22 06:38:05;;;;;;;11.20;8.50;;;;;;;20.37;100.00;98755.13;4172093;28;20039;-74
2023/06/22 06:40:10;;;;;;;12.05;8.00;;;;;;;20.32;100.00;98742.38;4172498;28;20037;-74
2023/06/22 06:42:11;;;;;;;8.60;7.28;;;;;;;20.30;100.00;98744.84;4172791;28;20130;-74
2023/06/22 06:44:11;;;;;;;10.10;7.53;;;;;;;20.36;100.00;98731.06;4171861;28;20033;-74
2023/06/22 06:46:11;;;;;;;11.35;7.60;;;;;;;20.44;100.00;98738.13;4176596;28;20025;-74
2023/06/22 06:48:12;;;;;;;10.35;7.75;;;;;;;20.59;100.00;98736.53;4172615;28;20120;-74
2023/06/22 06:50:12;;;;;;;8.60;7.60;;;;;;;20.81;100.00;98741.63;4172375;28;20365;-74
2023/06/22 06:52:13;;;;;;;9.93;7.68;;;;;;;20.97;100.00;98733.19;4172806;28;20037;-74
2023/06/22 06:54:13;;;;;;;9.68;8.07;;;;;;;21.04;100.00;98733.78;4171795;28;20025;-74
2023/06/22 06:56:13;;;;;;;9.05;7.93;;;;;;;21.11;100.00;98729.22;4172515;28;20025;-74
2023/06/22 06:58:14;;;;;;;9.05;8.15;;;;;;;21.07;100.00;98720.84;4172889;28;20488;-74
2023/06/22 07:00:15;;;;;;;10.52;8.85;;;;;;;21.10;100.00;98730.41;4175994;28;20449;-74
2023/06/22 07:02:16;;;;;;;9.48;8.15;;;;;;;21.20;100.00;98727.31;4187229;28;20040;-74
2023/06/22 07:04:16;;;;;;;10.38;9.00;;;;;;;21.21;100.00;98728.13;4176087;28;20028;-74
2023/06/22 07:06:16;;;;;;;10.13;8.48;;;;;;;21.28;100.00;98723.13;4172601;28;20104;-74
2023/06/22 07:08:17;;;;;;;10.30;8.00;;;;;;;21.27;100.00;98720.75;4179546;28;20041;-74
2023/06/22 07:10:17;;;;;;;10.73;8.82;;;;;;;21.24;100.00;98722.38;4176427;28;20087;-74
2023/06/22 07:12:18;;;;;;;12.20;8.88;;;;;;;21.23;100.00;98722.81;4176693;28;20037;-74
2023/06/22 07:14:18;;;;;;;10.35;8.30;;;;;;;21.26;100.00;98711.47;4189129;28;20058;-74
2023/06/22 07:16:18;;;;;;;11.23;8.93;;;;;;;21.39;100.00;98711.56;4184508;28;20115;-74
2023/06/22 07:18:19;;;;;;;11.43;9.00;;;;;;;21.53;100.00;98713.19;4189952;28;20106;-74
2023/06/22 07:20:19;;;;;;;16.98;9.20;;;;;;;21.63;100.00;98705.66;4188347;28;20093;-74
2023/06/22 07:22:20;;;;;;;12.25;8.57;;;;;;;21.78;100.00;98709.63;4181678;28;21015;-74
2023/06/22 07:24:24;;;;;;;12.45;9.75;;;;;;;21.86;100.00;98700.50;4175131;28;20205;-74
2023/06/22 07:26:25;;;;;;;11.63;9.38;;;;;;;21.98;100.00;98704.56;4182756;28;20139;-74
2023/06/22 07:28:25;;;;;;;11.02;9.25;;;;;;;22.07;100.00;98701.91;4189970;28;20635;-74
2023/06/22 07:30:26;;;;;;;10.27;9.02;;;;;;;22.17;100.00;98697.16;4190560;28;20044;-74
2023/06/22 07:32:28;;;;;;;11.05;9.40;;;;;;;22.26;100.00;98697.28;4179057;28;20040;-74
2023/06/22 07:34:29;;;;;;;9.63;8.63;;;;;;;22.36;100.00;98698.19;4175602;28;20480;-74
2023/06/22 07:36:30;;;;;;;11.77;9.40;;;;;;;22.47;100.00;98692.97;4174838;28;20279;-74
2023/06/22 07:38:30;;;;;;;12.13;9.93;;;;;;;22.57;100.00;98694.63;4185788;28;20075;-74
2023/06/22 07:40:30;;;;;;;9.52;8.52;;;;;;;22.65;100.00;98707.25;4188457;28;20083;-74
2023/06/22 07:42:33;;;;;;;11.98;9.55;;;;;;;22.74;100.00;98694.50;4180877;28;20642;-74
2023/06/22 07:44:33;;;;;;;;;;;;;;;22.80;100.00;98698.31;4176966;28;20041;-74
2023/06/22 07:46:33;;;;;;;10.85;9.20;;;;;;;22.76;100.00;98700.50;4179442;28;20454;-74
2023/06/22 07:48:37;;;;;;;10.23;8.95;;;;;;;22.75;100.00;98701.69;4190196;28;20123;-74
2023/06/22 07:50:37;;;;;;;9.88;8.30;;;;;;;22.81;100.00;98695.03;4175256;28;20147;-74
2023/06/22 07:52:37;;;;;;;10.98;9.27;;;;;;;22.90;100.00;98689.50;4182045;28;20084;-74
2023/06/22 07:54:38;;;;;;;9.40;8.45;;;;;;;22.99;100.00;98689.59;4181373;28;20063;-74
2023/06/22 07:56:38;;;;;;;12.88;9.15;;;;;;;23.13;100.00;98687.50;4175202;28;20037;-74
2023/06/22 07:58:39;;;;;;;10.60;8.95;;;;;;;23.18;100.00;98681.28;4174153;28;20053;-74
2023/06/22 08:00:39;;;;;;;10.73;8.98;;;;;;;23.28;100.00;98685.75;4173199;28;20114;-74
2023/06/22 08:02:41;;;;;;;9.65;8.45;;;;;;;23.32;100.00;98680.75;4174673;28;20106;-74
2023/06/22 08:04:41;;;;;;;10.80;8.52;;;;;;;23.37;100.00;98676.56;4174754;28;20064;-74
2023/06/22 08:06:41;;;;;;;11.63;9.23;;;;;;;23.43;100.00;98677.56;4174763;28;20072;-74
2023/06/22 08:08:42;;;;;;;11.57;8.90;;;;;;;23.45;100.00;98678.66;4174786;28;20266;-74
2023/06/22 08:10:43;;;;;;;10.75;8.85;;;;;;;23.43;100.00;98678.34;4174876;28;20045;-74
2023/06/22 08:12:43;;;;;;;9.80;7.57;;;;;;;23.53;100.00;98682.00;4173512;28;20045;-74
2023/06/22 08:14:45;;;;;;;13.98;8.60;;;;;;;23.52;100.00;98681.22;4175374;28;20126;-74
2023/06/22 08:16:46;;;;;;;;;;;;;;;23.67;100.00;98673.03;4170229;28;20080;-74
2023/06/22 08:18:47;;;;;;;12.73;9.25;;;;;;;23.77;100.00;98671.03;4175504;28;20280;-74
2023/06/22 08:20:47;;;;;;;9.85;8.63;;;;;;;23.80;100.00;98668.06;4175243;28;20052;-74
2023/06/22 08:22:47;;;;;;;10.27;8.35;;;;;;;23.85;100.00;98663.88;4172896;28;20075;-74
2023/06/22 08:24:48;;;;;;;11.20;8.90;;;;;;;23.92;100.00;98657.94;4176869;28;20477;-74
2023/06/22 08:26:51;;;;;;;9.50;8.35;;;;;;;23.94;100.00;98655.44;4178288;28;20053;-74
2023/06/22 08:28:52;;;;;;;12.80;8.68;;;;;;;23.98;100.00;98656.06;4172555;28;20373;-74
2023/06/22 08:30:53;;;;;;;9.77;8.73;;;;;;;24.09;100.00;98655.66;4181923;28;20357;-74
2023/06/22 08:32:54;;;;;;;12.70;8.32;;;;;;;24.15;100.00;98656.59;4173223;28;20095;-74
2023/06/22 08:34:56;;;;;;;11.27;9.23;;;;;;;24.27;100.00;98657.75;4173742;28;20047;-74
2023/06/22 08:36:57;;;;;;;8.70;7.78;;;;;;;24.33;100.00;98645.38;4173783;28;20052;-74
2023/06/22 08:38:57;;;;;;;9.23;8.18;;;;;;;24.48;100.00;98651.22;4173992;28;20045;-74
2023/06/22 08:40:58;;;;;;;12.32;8.55;;;;;;;24.51;100.00;98643.84;4173543;28;20036;-74
2023/06/22 08:42:58;;;;;;;10.48;8.52;;;;;;;24.59;100.00;98645.91;4185604;28;20492;-74
2023/06/22 08:44:58;;;;;;;13.93;8.98;;;;;;;24.66;100.00;98647.66;4174984;28;20144;-74
2023/06/22 08:46:59;;;;;;;9.13;8.18;;;;;;;24.74;100.00;98643.25;4174034;28;20507;-73
2023/06/22 08:48:59;;;;;;;9.50;8.55;;;;;;;24.81;100.00;98648.59;4174069;28;20071;-74
2023/06/22 08:50:59;;;;;;;10.88;8.55;;;;;;;24.86;100.00;98639.47;4179758;28;20072;-74
2023/06/22 08:53:00;;;;;;;10.85;8.38;;;;;;;24.94;100.00;98646.41;4174768;28;20036;-74
2023/06/22 08:55:00;;;;;;;10.55;8.80;;;;;;;24.93;100.00;98639.16;4174130;28;20045;-74
2023/06/22 08:57:02;;;;;;;11.70;9.25;;;;;;;25.02;100.00;98635.56;4175026;28;20056;-74
2023/06/22 08:59:02;;;;;;;11.40;9.32;;;;;;;25.09;100.00;98632.44;4177827;28;20057;-74
2023/06/22 09:01:04;;;;;;;9.63;8.73;;;;;;;25.17;100.00;98630.84;4174062;28;20029;-74
2023/06/22 09:03:04;;;;;;;9.52;8.57;;;;;;;25.20;97.91;98634.78;4173099;28;20114;-74
2023/06/22 09:05:05;;;;;;;14.65;9.45;;;;;;;25.19;99.00;98631.16;4180371;28;20040;-74
2023/06/22 09:07:06;;;;;;;15.13;8.60;;;;;;;25.26;100.00;98635.72;4185646;28;20080;-74
2023/06/22 09:09:06;;;;;;;10.88;9.80;;;;;;;25.35;98.76;98632.09;4186700;28;20040;-74
2023/06/22 09:11:07;;;;;;;9.55;8.55;;;;;;;25.41;97.57;98630.97;4187585;28;20056;-74
2023/06/22 09:13:07;;;;;;;10.18;9.02;;;;;;;25.48;97.47;98622.13;4177400;28;20141;-74
2023/06/22 09:15:08;;;;;;;11.25;8.93;;;;;;;25.52;97.48;98619.16;4173549;28;20428;-74
2023/06/22 09:17:08;;;;;;;10.82;9.35;;;;;;;25.58;97.03;98622.13;4185112;28;20044;-74
2023/06/22 09:19:08;;;;;;;9.75;8.85;;;;;;;25.62;96.18;98617.84;4184637;28;20198;-74
2023/06/22 09:21:09;;;;;;;10.90;9.20;;;;;;;25.63;95.61;98622.25;4173651;28;20048;-74